Time;durP1;ratioP1;P1;durP2;ratioP2;P2;SDS_P1;SDS_P2;PMS_P1;PMS_P2;Temp;Humidity;BMP_temperature;BMP_pressure;BME280_temperature;BME280_humidity;BME280_pressure;Samples;Min_cycle;Max_cycle;Signal;HPM_P1;HPM_P2
2022/10/11 00:00:07;;;;;;;9.63;3.78;;;;;;;13.19;58.72;102373.91;5085306;28;20044;-63
2022/10/11 00:02:35;;;;;;;14.68;3.67;;;;;;;13.18;58.67;102377.66;5082477;28;20048;-63
2022/10/11 00:05:05;;;;;;;8.48;3.65;;;;;;;13.17;58.96;102384.09;5083665;28;20076;-63
2022/10/11 00:07:33;;;;;;;9.85;4.13;;;;;;;13.16;58.51;102385.97;5084818;28;20052;-64
2022/10/11 00:10:00;;;;;;;7.70;4.15;;;;;;;13.15;58.82;102386.97;5084511;28;20474;-64
2022/10/11 00:12:28;;;;;;;9.98;3.65;;;;;;;13.14;58.88;102396.09;5082382;28;20048;-63
2022/10/11 00:14:56;;;;;;;9.60;3.90;;;;;;;13.12;58.46;102394.63;5086225;28;20112;-63
2022/10/11 00:17:24;;;;;;;15.35;4.63;;;;;;;13.08;58.95;102396.06;5084786;28;20056;-64
2022/10/11 00:19:52;;;;;;;12.77;3.70;;;;;;;13.09;58.62;102393.16;5084458;28;20054;-63
2022/10/11 00:22:21;;;;;;;10.07;4.00;;;;;;;13.06;58.83;102393.56;5076023;28;20085;-64
2022/10/11 00:24:48;;;;;;;7.80;3.42;;;;;;;13.06;58.49;102398.13;5084354;28;20055;-63
2022/10/11 00:27:16;;;;;;;11.85;3.88;;;;;;;13.04;58.39;102401.03;5086245;28;20060;-64
2022/10/11 00:29:45;;;;;;;11.07;3.90;;;;;;;13.03;58.46;102399.34;5076963;28;20052;-63
2022/10/11 00:32:12;;;;;;;8.35;3.13;;;;;;;13.01;58.59;102396.84;5089297;28;20108;-64
2022/10/11 00:34:40;;;;;;;8.13;3.45;;;;;;;12.99;58.40;102409.72;5084807;28;20069;-64
2022/10/11 00:37:08;;;;;;;9.32;3.47;;;;;;;12.98;58.58;102409.91;5075124;28;20049;-64
2022/10/11 00:39:37;;;;;;;8.15;3.92;;;;;;;12.96;58.19;102412.81;5087496;28;20056;-64
2022/10/11 00:42:12;;;;;;;9.07;3.13;;;;;;;12.93;58.69;102415.91;5084655;28;20056;-64
2022/10/11 00:44:42;;;;;;;13.70;3.60;;;;;;;12.94;58.18;102414.88;5079569;28;20045;-64
2022/10/11 00:47:15;;;;;;;8.30;3.40;;;;;;;12.92;58.08;102414.25;5078018;28;20059;-64
2022/10/11 00:49:46;;;;;;;5.28;2.60;;;;;;;12.92;58.02;102418.81;5085525;28;20059;-64
2022/10/11 00:52:19;;;;;;;8.50;3.20;;;;;;;12.89;58.20;102419.22;5078771;28;20056;-64
2022/10/11 00:54:49;;;;;;;6.97;3.10;;;;;;;12.79;58.24;102407.94;5081053;28;20052;-63
2022/10/11 00:57:20;;;;;;;9.00;3.25;;;;;;;12.87;57.82;102423.97;5083884;28;20070;-64
2022/10/11 00:59:51;;;;;;;8.70;3.30;;;;;;;12.86;57.92;102422.31;5075977;28;20049;-63
2022/10/11 01:02:20;;;;;;;7.72;3.65;;;;;;;12.83;58.34;102420.00;5080098;28;20175;-63
2022/10/11 01:04:48;;;;;;;7.18;3.28;;;;;;;12.82;58.12;102429.13;5083198;28;20052;-64
2022/10/11 01:07:37;;;;;;;8.80;2.80;;;;;;;12.81;58.25;102427.47;5096635;28;20052;-63
2022/10/11 01:10:07;;;;;;;6.65;2.65;;;;;;;12.79;58.15;102426.81;5082172;28;20056;-63
2022/10/11 01:12:35;;;;;;;13.07;3.28;;;;;;;12.78;58.27;102426.00;5073701;28;20135;-63
2022/10/11 01:15:13;;;;;;;7.88;3.35;;;;;;;12.76;58.09;102427.22;5076452;28;20060;-64
2022/10/11 01:17:49;;;;;;;10.18;3.10;;;;;;;12.75;58.03;102429.09;5077558;28;20050;-64
2022/10/11 01:20:45;;;;;;;9.65;2.78;;;;;;;12.74;57.97;102430.13;5072710;28;20052;-63
2022/10/11 01:23:45;;;;;;;8.20;3.75;;;;;;;12.70;58.05;102424.28;5074809;28;20052;-63
2022/10/11 01:26:35;;;;;;;10.30;2.95;;;;;;;12.69;58.11;102433.41;5063527;28;20059;-63
2022/10/11 01:29:13;;;;;;;7.47;3.05;;;;;;;12.68;57.55;102430.91;5080136;28;20051;-64
2022/10/11 01:31:49;;;;;;;5.55;2.42;;;;;;;12.67;57.53;102431.94;5088997;28;20048;-64
2022/10/11 01:34:25;;;;;;;10.32;2.67;;;;;;;12.65;57.63;102431.28;5073377;28;20052;-64
2022/10/11 01:37:02;;;;;;;6.90;3.53;;;;;;;12.56;57.43;102419.81;5082516;28;20055;-64
2022/10/11 01:39:33;;;;;;;6.35;2.65;;;;;;;12.55;57.53;102425.41;5081343;28;20310;-64
2022/10/11 01:42:05;;;;;;;6.53;2.63;;;;;;;12.63;57.71;102438.75;5080727;28;20045;-64
2022/10/11 01:44:36;;;;;;;6.43;2.47;;;;;;;12.60;57.39;102439.97;5081447;28;20112;-64
2022/10/11 01:47:05;;;;;;;7.55;2.47;;;;;;;12.61;57.40;102438.13;5086341;28;20112;-64
2022/10/11 01:49:33;;;;;;;6.47;2.40;;;;;;;12.58;57.42;102433.94;5083942;28;20048;-64
2022/10/11 01:52:05;;;;;;;9.02;3.92;;;;;;;12.60;57.08;102439.16;5082097;28;20047;-65
2022/10/11 01:54:50;;;;;;;4.80;2.70;;;;;;;12.58;57.40;102441.22;5069692;28;20060;-64
2022/10/11 01:57:57;;;;;;;10.68;2.38;;;;;;;12.57;57.45;102442.22;5075820;28;20395;-64
2022/10/11 02:00:30;;;;;;;10.43;3.20;;;;;;;12.46;57.39;102423.88;5079747;28;20047;-64
2022/10/11 02:03:13;;;;;;;6.95;2.42;;;;;;;12.54;57.32;102450.72;5090125;28;20044;-62
2022/10/11 02:05:47;;;;;;;11.05;2.83;;;;;;;12.36;57.56;102418.84;5080770;28;20044;-64
2022/10/11 02:08:23;;;;;;;8.95;2.60;;;;;;;12.50;56.93;102444.03;5084317;28;20044;-65
2022/10/11 02:11:00;;;;;;;5.88;3.22;;;;;;;12.50;57.13;102444.03;5083449;28;20044;-63
2022/10/11 02:13:34;;;;;;;8.75;2.92;;;;;;;12.48;57.41;102446.94;5080003;28;20485;-63
2022/10/11 02:16:07;;;;;;;6.22;2.67;;;;;;;12.48;57.30;102451.50;5077823;28;20576;-63
2022/10/11 02:18:41;;;;;;;6.80;2.42;;;;;;;12.47;57.22;102456.06;5093055;28;20052;-63
2022/10/11 02:21:13;;;;;;;7.15;2.55;;;;;;;12.46;57.07;102454.38;5079170;28;20189;-63
2022/10/11 02:23:47;;;;;;;8.13;2.92;;;;;;;12.44;57.08;102450.22;5082594;28;20049;-63
2022/10/11 02:26:17;;;;;;;8.75;2.70;;;;;;;12.43;56.88;102449.38;5083214;28;20238;-63
2022/10/11 02:28:47;;;;;;;5.97;3.08;;;;;;;12.42;56.95;102452.28;5079936;28;20111;-64
2022/10/11 02:31:16;;;;;;;8.10;2.72;;;;;;;12.41;57.04;102462.22;5078078;28;20109;-63
2022/10/11 02:33:53;;;;;;;6.03;2.38;;;;;;;12.39;56.79;102454.34;5081936;28;20128;-63
2022/10/11 02:36:28;;;;;;;8.30;2.38;;;;;;;12.37;56.67;102456.38;5081979;28;20052;-64
2022/10/11 02:39:03;;;;;;;6.18;2.67;;;;;;;12.36;56.55;102448.50;5081003;28;20056;-63
2022/10/11 02:41:37;;;;;;;6.50;3.40;;;;;;;12.35;56.85;102463.84;5083939;28;20049;-64
2022/10/11 02:44:08;;;;;;;4.15;2.38;;;;;;;12.33;56.68;102456.97;5077172;28;20068;-64
2022/10/11 02:46:37;;;;;;;5.53;2.25;;;;;;;12.32;56.61;102460.69;5085686;28;20154;-64
2022/10/11 02:49:07;;;;;;;6.38;2.42;;;;;;;12.30;57.07;102458.19;5085216;28;20083;-63
2022/10/11 02:51:36;;;;;;;7.50;2.72;;;;;;;12.29;56.62;102458.38;5093075;28;20056;-64
2022/10/11 02:54:04;;;;;;;8.98;2.65;;;;;;;12.26;56.98;102456.91;5082164;28;20059;-64
2022/10/11 02:56:31;;;;;;;7.28;2.30;;;;;;;12.26;56.79;102456.91;5080742;28;20050;-64
2022/10/11 02:58:59;;;;;;;5.35;2.65;;;;;;;12.25;56.55;102466.03;5072346;28;20140;-64
2022/10/11 03:01:27;;;;;;;4.35;2.10;;;;;;;12.23;56.70;102461.84;5088093;28;20334;-64
2022/10/11 03:03:55;;;;;;;5.75;2.40;;;;;;;12.22;56.58;102466.41;5086598;28;20461;-63
2022/10/11 03:06:24;;;;;;;6.70;2.70;;;;;;;12.20;56.59;102464.94;5081867;28;20060;-64
2022/10/11 03:08:52;;;;;;;6.43;2.20;;;;;;;12.20;56.80;102467.63;5086814;28;20131;-64
2022/10/11 03:11:19;;;;;;;4.78;2.15;;;;;;;12.18;56.57;102457.03;5083759;28;20063;-64
2022/10/11 03:13:47;;;;;;;4.55;2.15;;;;;;;12.17;56.58;102462.63;5092840;28;20052;-64
2022/10/11 03:16:15;;;;;;;6.50;2.25;;;;;;;12.16;56.50;102464.50;5084805;28;20044;-64
2022/10/11 03:18:43;;;;;;;6.65;2.47;;;;;;;12.14;56.56;102461.16;5085207;28;20048;-64
2022/10/11 03:21:11;;;;;;;8.23;2.83;;;;;;;12.12;56.72;102463.25;5088602;28;20535;-64
2022/10/11 03:23:41;;;;;;;5.10;2.22;;;;;;;12.12;56.68;102462.41;5087166;28;20049;-64
2022/10/11 03:26:09;;;;;;;4.82;2.33;;;;;;;12.10;56.58;102462.59;5094529;28;20062;-64
2022/10/11 03:28:36;;;;;;;3.65;2.42;;;;;;;12.09;56.55;102465.47;5097734;28;20053;-63
2022/10/11 03:31:04;;;;;;;8.25;2.50;;;;;;;12.07;56.79;102471.06;5088067;28;20042;-65
2022/10/11 03:33:32;;;;;;;6.20;2.55;;;;;;;12.06;56.72;102464.00;5094565;28;20048;-63
2022/10/11 03:36:00;;;;;;;8.52;2.60;;;;;;;12.05;56.49;102470.41;5083897;28;20049;-63
2022/10/11 03:38:28;;;;;;;7.30;2.70;;;;;;;12.04;56.51;102474.16;5076829;28;20060;-63
2022/10/11 03:40:57;;;;;;;6.10;2.17;;;;;;;12.03;56.75;102483.25;5085389;28;20048;-64
2022/10/11 03:43:25;;;;;;;7.32;2.63;;;;;;;12.01;56.42;102475.34;5083436;28;20061;-64
2022/10/11 03:45:53;;;;;;;7.70;2.75;;;;;;;12.00;56.53;102479.06;5085040;28;20449;-64
2022/10/11 03:48:21;;;;;;;5.78;2.70;;;;;;;11.99;56.53;102484.66;5085396;28;20056;-64
2022/10/11 03:50:49;;;;;;;8.07;3.33;;;;;;;11.97;56.42;102484.84;5085599;28;20048;-64
2022/10/11 03:53:17;;;;;;;7.90;2.90;;;;;;;11.98;56.47;102485.69;5086452;28;20059;-63
2022/10/11 03:55:45;;;;;;;7.68;3.15;;;;;;;11.96;56.48;102482.34;5081657;28;20078;-64
2022/10/11 03:58:14;;;;;;;10.98;2.85;;;;;;;11.95;56.44;102489.59;5085856;28;20448;-64
2022/10/11 04:00:42;;;;;;;6.93;2.50;;;;;;;11.93;56.62;102480.88;5079955;28;20135;-64
2022/10/11 04:03:09;;;;;;;7.72;2.67;;;;;;;11.94;56.22;102490.63;5084187;28;20055;-64
2022/10/11 04:05:37;;;;;;;7.53;2.33;;;;;;;11.92;56.45;102495.38;5082549;28;20076;-64
2022/10/11 04:08:05;;;;;;;5.53;3.30;;;;;;;11.92;56.26;102497.22;5086199;28;20052;-64
2022/10/11 04:10:39;;;;;;;10.02;3.13;;;;;;;11.90;56.26;102497.41;5084781;28;20076;-64
2022/10/11 04:13:07;;;;;;;7.38;2.80;;;;;;;11.90;56.50;102497.41;5084359;28;20044;-63
2022/10/11 04:15:36;;;;;;;6.22;2.10;;;;;;;11.88;56.33;102494.06;5083138;28;20054;-63
2022/10/11 04:18:05;;;;;;;5.40;2.33;;;;;;;11.88;56.10;102498.63;5085279;28;20072;-64
2022/10/11 04:20:33;;;;;;;5.53;2.45;;;;;;;11.88;56.20;102496.78;5080963;28;20044;-64
2022/10/11 04:23:00;;;;;;;7.10;2.67;;;;;;;11.86;56.13;102503.38;5084947;28;20048;-63
2022/10/11 04:25:28;;;;;;;8.15;2.75;;;;;;;11.86;56.03;102506.91;5082798;28;20063;-64
2022/10/11 04:27:56;;;;;;;6.22;2.50;;;;;;;11.85;56.01;102507.09;5078128;28;20044;-63
2022/10/11 04:30:24;;;;;;;7.40;2.75;;;;;;;11.83;56.18;102507.28;5082827;28;20049;-64
2022/10/11 04:32:53;;;;;;;6.05;3.13;;;;;;;11.82;56.20;102508.31;5085557;28;20044;-63
2022/10/11 04:35:21;;;;;;;9.13;2.60;;;;;;;11.80;56.19;102510.34;5083877;28;20052;-63
2022/10/11 04:37:49;;;;;;;5.10;2.33;;;;;;;11.79;56.33;102508.69;5080665;28;20070;-63
2022/10/11 04:40:16;;;;;;;8.07;2.47;;;;;;;11.78;56.04;102514.25;5083872;28;20044;-63
2022/10/11 04:42:44;;;;;;;6.78;3.10;;;;;;;11.74;56.36;102514.59;5084228;28;20556;-63
2022/10/11 04:45:12;;;;;;;6.88;2.83;;;;;;;11.74;56.33;102511.06;5073267;28;20135;-63
2022/10/11 04:47:40;;;;;;;6.38;2.53;;;;;;;11.73;56.21;102520.19;5090106;28;20058;-66
2022/10/11 04:50:09;;;;;;;4.18;2.35;;;;;;;11.71;56.28;102520.38;5087548;28;20052;-63
2022/10/11 04:52:37;;;;;;;8.35;3.15;;;;;;;11.72;56.17;102526.59;5081588;28;20045;-66
2022/10/11 04:55:06;;;;;;;7.60;3.13;;;;;;;11.70;56.25;102523.25;5083920;28;20048;-66
2022/10/11 04:57:34;;;;;;;6.85;2.83;;;;;;;11.68;55.88;102523.44;5087558;28;20052;-65
2022/10/11 05:00:02;;;;;;;7.03;2.70;;;;;;;11.68;56.20;102528.00;5081639;28;20063;-65
2022/10/11 05:02:29;;;;;;;5.22;2.40;;;;;;;11.65;56.12;102523.81;5075538;28;20055;-66
2022/10/11 05:04:57;;;;;;;5.45;2.92;;;;;;;11.64;55.93;102529.38;5084641;28;20113;-65
2022/10/11 05:07:26;;;;;;;3.97;2.63;;;;;;;11.64;55.81;102537.47;5082905;28;20059;-65
2022/10/11 05:09:54;;;;;;;8.68;2.90;;;;;;;11.60;56.12;102528.94;5077919;28;20111;-66
2022/10/11 05:12:22;;;;;;;6.30;2.75;;;;;;;11.60;56.10;102536.16;5082469;28;20398;-66
2022/10/11 05:14:50;;;;;;;7.50;2.95;;;;;;;11.57;56.12;102533.84;5078935;28;20048;-66
2022/10/11 05:17:18;;;;;;;4.05;2.22;;;;;;;11.54;56.25;102537.75;5081923;28;20048;-64
2022/10/11 05:19:46;;;;;;;5.57;2.25;;;;;;;11.53;56.51;102546.84;5086096;28;20386;-63
2022/10/11 05:22:13;;;;;;;6.10;2.85;;;;;;;11.52;56.08;102539.78;5080131;28;20040;-65
2022/10/11 05:24:43;;;;;;;5.32;3.08;;;;;;;11.52;56.14;102538.97;5079198;28;20062;-67
2022/10/11 05:27:10;;;;;;;5.25;2.72;;;;;;;11.51;56.24;102534.59;5086830;28;20144;-67
2022/10/11 05:29:38;;;;;;;6.20;2.80;;;;;;;11.50;56.11;102544.53;5079778;28;20047;-66
2022/10/11 05:32:06;;;;;;;4.43;2.40;;;;;;;11.48;56.05;102543.06;5078089;28;20047;-65
2022/10/11 05:34:34;;;;;;;5.63;2.58;;;;;;;11.46;56.07;102548.63;4733367;28;10000095;-67
2022/10/11 05:37:01;;;;;;;5.72;2.80;;;;;;;11.46;56.17;102558.56;5076486;28;20055;-67
2022/10/11 05:39:29;;;;;;;5.75;2.63;;;;;;;11.45;56.17;102548.81;5077937;28;20059;-68
2022/10/11 05:41:58;;;;;;;7.43;2.40;;;;;;;11.45;56.00;102556.88;5073533;28;20048;-67
2022/10/11 05:44:26;;;;;;;9.55;3.05;;;;;;;11.42;56.13;102550.00;5077960;28;20051;-68
2022/10/11 05:46:54;;;;;;;8.98;3.92;;;;;;;11.43;56.06;102558.91;5078810;28;20091;-68
2022/10/11 05:49:22;;;;;;;6.55;2.95;;;;;;;11.43;56.20;102562.44;5076009;28;20055;-66
2022/10/11 05:51:50;;;;;;;6.88;2.75;;;;;;;11.40;56.24;102562.81;5074301;28;20045;-63
2022/10/11 05:54:17;;;;;;;8.60;2.63;;;;;;;11.41;56.07;102569.88;5078246;28;20060;-63
2022/10/11 05:56:45;;;;;;;8.80;3.25;;;;;;;11.39;56.05;102563.84;5073690;28;20049;-64
2022/10/11 05:59:14;;;;;;;4.88;2.42;;;;;;;11.36;55.79;102562.34;5082182;28;20399;-64
2022/10/11 06:01:42;;;;;;;8.95;2.58;;;;;;;11.37;56.16;102571.25;5080252;28;20048;-64
2022/10/11 06:04:10;;;;;;;7.40;2.40;;;;;;;11.35;56.12;102573.31;5078033;28;20057;-64
2022/10/11 06:06:38;;;;;;;6.68;2.38;;;;;;;11.33;55.96;102568.09;5075799;28;20059;-64
2022/10/11 06:09:06;;;;;;;7.05;2.50;;;;;;;11.35;55.81;102567.91;5078880;28;20124;-64
2022/10/11 06:11:34;;;;;;;8.45;3.05;;;;;;;11.24;56.25;102555.75;5061045;28;20062;-64
2022/10/11 06:14:01;;;;;;;5.88;2.78;;;;;;;11.33;55.82;102578.88;5073384;28;20514;-67
2022/10/11 06:16:31;;;;;;;6.47;2.67;;;;;;;11.30;56.02;102578.41;5090082;28;20063;-66
2022/10/11 06:18:59;;;;;;;7.90;2.80;;;;;;;11.27;56.16;102578.78;5083246;28;20489;-65
2022/10/11 06:21:27;;;;;;;6.60;3.10;;;;;;;11.28;56.04;102585.84;5082406;28;20048;-66
2022/10/11 06:23:55;;;;;;;7.25;3.15;;;;;;;11.27;56.21;102584.16;5080739;28;20048;-66
2022/10/11 06:26:28;;;;;;;7.05;3.10;;;;;;;11.29;55.97;102587.50;5082508;28;20056;-66
2022/10/11 06:28:56;;;;;;;9.70;3.22;;;;;;;11.27;56.11;102598.44;5081936;28;20395;-65
2022/10/11 06:31:24;;;;;;;11.85;3.67;;;;;;;11.28;56.23;102594.75;5077061;28;20056;-65
2022/10/11 06:33:53;;;;;;;6.60;3.25;;;;;;;11.28;56.11;102600.13;5083412;28;20059;-66
2022/10/11 06:36:21;;;;;;;9.13;3.80;;;;;;;11.28;56.13;102600.13;5083396;28;20058;-66
2022/10/11 06:38:51;;;;;;;8.32;3.63;;;;;;;11.29;56.11;102603.66;5076902;28;20809;-66
2022/10/11 06:41:21;;;;;;;6.18;2.60;;;;;;;11.28;56.24;102599.28;5088098;28;20049;-65
2022/10/11 06:43:49;;;;;;;15.00;3.33;;;;;;;11.28;56.34;102599.28;5085217;28;20047;-65
2022/10/11 06:46:17;;;;;;;8.63;3.70;;;;;;;11.29;56.22;102600.97;5082720;28;20044;-65
2022/10/11 06:48:47;;;;;;;7.53;3.92;;;;;;;11.30;56.24;102602.63;5086983;28;20049;-68
2022/10/11 06:51:18;;;;;;;11.80;3.58;;;;;;;11.33;56.06;102613.03;5086521;28;20048;-66
2022/10/11 06:53:49;;;;;;;6.43;3.30;;;;;;;11.39;56.32;102606.91;5083973;28;20052;-66
2022/10/11 06:56:18;;;;;;;7.07;3.47;;;;;;;11.55;55.83;102606.75;5087065;28;20054;-66
2022/10/11 06:58:47;;;;;;;7.40;3.60;;;;;;;11.68;55.37;102606.09;5080712;28;20521;-66
2022/10/11 07:01:17;;;;;;;6.78;3.33;;;;;;;11.84;55.05;102614.00;5082034;28;20135;-67
2022/10/11 07:03:46;;;;;;;9.90;3.42;;;;;;;12.03;54.32;102616.13;5087555;28;20044;-67
2022/10/11 07:06:18;;;;;;;7.70;3.42;;;;;;;12.18;53.95;102617.94;5086388;28;20112;-67
2022/10/11 07:08:46;;;;;;;11.82;3.50;;;;;;;12.20;54.13;102624.81;5086127;28;20055;-66
2022/10/11 07:11:16;;;;;;;8.30;2.75;;;;;;;12.18;54.07;102623.31;5082421;28;20061;-66
2022/10/11 07:13:48;;;;;;;11.02;3.47;;;;;;;12.10;54.16;102632.38;5086185;28;20048;-67
2022/10/11 07:16:16;;;;;;;16.52;4.63;;;;;;;11.99;54.75;102631.00;5085612;28;20072;-66
2022/10/11 07:18:45;;;;;;;12.98;4.22;;;;;;;11.87;55.07;102628.97;5080703;28;20115;-66
2022/10/11 07:21:15;;;;;;;16.83;3.90;;;;;;;11.79;55.35;102631.75;5077679;28;20533;-66
2022/10/11 07:23:44;;;;;;;14.70;4.32;;;;;;;11.72;55.71;102635.16;5076298;28;20053;-67
2022/10/11 07:26:12;;;;;;;17.35;5.00;;;;;;;11.69;55.86;102637.38;5085508;28;20044;-67
2022/10/11 07:28:41;;;;;;;22.80;4.20;;;;;;;11.66;56.17;102640.44;5085670;28;20528;-67
2022/10/11 07:31:12;;;;;;;17.55;5.25;;;;;;;11.62;56.39;102637.28;5085641;28;20139;-67
2022/10/11 07:33:40;;;;;;;15.13;4.07;;;;;;;11.57;56.58;102638.88;5086798;28;20064;-70
2022/10/11 07:36:08;;;;;;;25.27;4.38;;;;;;;11.48;56.37;102626.50;5086217;28;20044;-66
2022/10/11 07:38:39;;;;;;;20.58;4.13;;;;;;;11.53;56.80;102651.88;5079509;28;20044;-67
2022/10/11 07:41:09;;;;;;;22.50;4.45;;;;;;;11.41;56.67;102638.00;5086205;28;20107;-68
2022/10/11 07:43:38;;;;;;;14.23;4.50;;;;;;;11.47;57.13;102644.53;5085776;28;20052;-69
2022/10/11 07:46:06;;;;;;;22.00;4.90;;;;;;;11.39;57.15;102640.06;4733472;28;10000528;-68
2022/10/11 07:48:36;;;;;;;12.35;4.07;;;;;;;11.46;57.47;102644.72;5082174;28;20189;-68
2022/10/11 07:51:06;;;;;;;18.88;4.90;;;;;;;11.45;57.60;102643.03;5085957;28;20063;-68
2022/10/11 07:53:39;;;;;;;19.95;4.10;;;;;;;11.34;57.65;102631.69;5080081;28;20040;-68
2022/10/11 07:56:11;;;;;;;14.90;3.53;;;;;;;11.43;57.62;102651.28;5086664;28;20382;-68
2022/10/11 07:58:39;;;;;;;14.75;3.88;;;;;;;11.43;57.67;102653.16;5084835;28;20052;-68
2022/10/11 08:01:08;;;;;;;15.15;4.07;;;;;;;11.42;57.83;102655.00;5082618;28;20127;-69
2022/10/11 08:03:37;;;;;;;16.17;3.65;;;;;;;11.38;57.87;102649.16;5072427;28;20056;-68
2022/10/11 08:06:07;;;;;;;12.70;3.50;;;;;;;11.43;58.33;102662.06;5081722;28;20052;-68
2022/10/11 08:08:36;;;;;;;15.70;3.83;;;;;;;11.44;58.09;102663.72;5073584;28;20080;-69
2022/10/11 08:11:05;;;;;;;11.98;4.50;;;;;;;11.48;58.42;102667.72;5069703;28;20045;-68
2022/10/11 08:13:34;;;;;;;18.83;4.60;;;;;;;11.62;57.93;102663.38;5071294;28;20041;-68
2022/10/11 08:16:09;;;;;;;10.63;3.40;;;;;;;11.78;57.49;102662.41;5083667;28;20058;-68
2022/10/11 08:18:38;;;;;;;7.95;2.95;;;;;;;11.97;57.29;102664.56;5078551;28;20112;-70
2022/10/11 08:21:07;;;;;;;13.38;4.05;;;;;;;12.06;56.70;102649.94;5078516;28;20056;-68
2022/10/11 08:23:35;;;;;;;14.00;3.33;;;;;;;12.32;56.11;102663.72;5083858;28;20058;-69
2022/10/11 08:26:03;;;;;;;10.85;2.97;;;;;;;12.33;55.93;102670.78;5083742;28;20205;-69
2022/10/11 08:28:32;;;;;;;10.35;4.28;;;;;;;12.30;56.17;102665.78;5080073;28;20060;-69
2022/10/11 08:31:02;;;;;;;10.20;4.40;;;;;;;12.23;56.74;102664.88;5084172;28;20073;-68
2022/10/11 08:33:30;;;;;;;13.75;3.88;;;;;;;12.17;56.75;102665.63;5082827;28;21017;-68
2022/10/11 08:35:58;;;;;;;11.63;3.40;;;;;;;12.08;57.32;102663.25;5083741;28;20501;-69
2022/10/11 08:38:26;;;;;;;11.98;4.28;;;;;;;12.03;57.20;102671.88;5081758;28;20048;-69
2022/10/11 08:40:55;;;;;;;10.70;3.58;;;;;;;11.98;57.46;102667.06;5086206;28;20374;-68
2022/10/11 08:43:34;;;;;;;11.63;3.50;;;;;;;11.96;57.48;102666.41;5083540;28;20394;-68
2022/10/11 08:46:06;;;;;;;7.93;3.03;;;;;;;11.96;58.03;102662.88;5083322;28;20044;-69
2022/10/11 08:48:38;;;;;;;13.50;3.58;;;;;;;11.95;58.08;102661.19;5080719;28;20090;-68
2022/10/11 08:51:13;;;;;;;14.15;4.25;;;;;;;11.87;57.66;102658.59;5083735;28;20128;-69
2022/10/11 08:53:46;;;;;;;8.82;3.35;;;;;;;11.85;58.38;102653.41;5083702;28;20040;-68
2022/10/11 08:56:16;;;;;;;8.88;2.95;;;;;;;11.94;58.48;102667.63;5083511;28;20124;-67
2022/10/11 08:58:50;;;;;;;7.97;3.05;;;;;;;11.93;58.39;102677.56;5080089;28;20079;-67
2022/10/11 09:01:23;;;;;;;7.45;2.85;;;;;;;11.92;58.63;102675.88;5081774;28;20040;-68
2022/10/11 09:03:52;;;;;;;8.00;2.63;;;;;;;11.89;58.73;102670.88;5081128;28;20076;-67
2022/10/11 09:06:32;;;;;;;9.18;3.10;;;;;;;11.90;58.65;102679.78;5082528;28;20044;-68
2022/10/11 09:09:13;;;;;;;10.57;4.85;;;;;;;11.91;59.01;102679.59;5081709;28;20518;-68
2022/10/11 09:11:52;;;;;;;10.48;3.10;;;;;;;11.88;59.15;102681.84;5079695;28;20059;-68
2022/10/11 09:14:39;;;;;;;8.05;2.95;;;;;;;11.86;59.00;102684.72;5083081;28;20044;-68
2022/10/11 09:17:17;;;;;;;6.18;2.45;;;;;;;11.87;58.97;102682.84;5079724;28;20520;-68
2022/10/11 09:20:03;;;;;;;5.43;2.38;;;;;;;11.84;59.25;102692.13;5080131;28;20057;-68
2022/10/11 09:22:44;;;;;;;8.07;3.15;;;;;;;11.83;59.47;102686.94;5081418;28;20067;-68
2022/10/11 09:25:23;;;;;;;7.85;2.90;;;;;;;11.84;59.74;102680.53;5083136;28;20051;-68
2022/10/11 09:28:03;;;;;;;6.50;2.92;;;;;;;11.86;59.92;102690.09;5077522;28;20082;-68
2022/10/11 09:30:32;;;;;;;9.05;3.85;;;;;;;11.86;59.88;102694.66;5083113;28;20072;-68
2022/10/11 09:33:10;;;;;;;7.65;2.78;;;;;;;11.87;59.97;102680.16;5079368;28;20086;-68
2022/10/11 09:35:41;;;;;;;10.23;3.05;;;;;;;11.90;59.99;102686.00;5079373;28;20047;-68
2022/10/11 09:38:18;;;;;;;9.93;2.92;;;;;;;11.93;60.17;102691.03;5082780;28;20147;-68
2022/10/11 09:40:53;;;;;;;;;;;;;;;11.95;59.77;102685.47;5083416;28;20052;-68
2022/10/11 09:43:21;;;;;;;7.60;2.78;;;;;;;11.97;59.95;102689.63;5079820;28;20289;-68
2022/10/11 09:45:48;;;;;;;9.00;3.00;;;;;;;11.99;59.97;102682.19;5083892;28;20064;-68
2022/10/11 09:48:22;;;;;;;7.47;2.45;;;;;;;12.03;59.96;102685.34;5079416;28;20048;-67
2022/10/11 09:50:54;;;;;;;9.80;2.28;;;;;;;12.08;59.86;102684.81;5082147;28;20058;-68
2022/10/11 09:53:48;;;;;;;7.45;2.50;;;;;;;12.10;59.96;102686.28;5080551;28;20048;-68
2022/10/11 09:56:17;;;;;;;9.55;2.17;;;;;;;12.10;59.84;102674.66;5082417;28;20052;-68
2022/10/11 09:58:44;;;;;;;8.40;2.33;;;;;;;12.15;60.07;102683.00;5083041;28;20040;-67
2022/10/11 10:01:21;;;;;;;9.02;2.40;;;;;;;12.18;59.89;102679.94;5082323;28;20048;-68
2022/10/11 10:04:05;;;;;;;13.40;2.72;;;;;;;12.21;59.81;102683.09;5082241;28;20064;-68
2022/10/11 10:06:33;;;;;;;6.55;3.00;;;;;;;12.24;60.16;102682.72;5078763;28;20060;-68
2022/10/11 10:09:24;;;;;;;7.47;2.33;;;;;;;12.28;60.16;102680.47;5083077;28;20040;-68
2022/10/11 10:11:53;;;;;;;7.50;2.03;;;;;;;12.31;60.07;102683.63;5081052;28;20048;-68
2022/10/11 10:14:24;;;;;;;7.18;2.28;;;;;;;12.32;60.20;102682.59;5084935;28;20131;-69
2022/10/11 10:17:01;;;;;;;6.47;2.38;;;;;;;12.34;60.24;102680.56;5084910;28;20139;-68
2022/10/11 10:19:37;;;;;;;8.00;2.38;;;;;;;12.37;60.18;102685.56;5085226;28;20079;-68
2022/10/11 10:22:18;;;;;;;5.75;1.77;;;;;;;12.40;60.07;102678.97;5086600;28;20053;-68
2022/10/11 10:24:48;;;;;;;7.25;2.10;;;;;;;12.42;60.10;102673.38;5083676;28;20045;-68
2022/10/11 10:27:21;;;;;;;7.13;2.20;;;;;;;12.46;59.96;102677.38;5083221;28;20056;-69
2022/10/11 10:30:18;;;;;;;6.15;2.25;;;;;;;12.48;59.99;102672.63;5082791;28;20108;-68
2022/10/11 10:32:51;;;;;;;;;;;;;;;12.51;60.23;102672.25;5043269;28;20576;-68
2022/10/11 10:35:35;;;;;;;6.25;2.10;;;;;;;12.54;60.10;102677.25;5044376;28;19921;-68
2022/10/11 10:38:11;;;;;;;7.53;2.28;;;;;;;12.57;59.94;102674.19;5046162;28;20053;-68
2022/10/11 10:40:42;;;;;;;5.07;1.98;;;;;;;12.59;60.07;102683.75;5041385;28;20076;-68
2022/10/11 10:43:17;;;;;;;6.63;2.28;;;;;;;12.62;60.27;102669.88;5043807;28;20109;-69
2022/10/11 10:46:09;;;;;;;6.47;2.72;;;;;;;12.66;59.99;102668.47;5043860;28;20069;-68
2022/10/11 10:48:43;;;;;;;3.88;1.80;;;;;;;12.69;60.17;102673.50;5042616;28;20049;-68
2022/10/11 10:51:44;;;;;;;6.78;2.08;;;;;;;12.66;60.00;102662.25;5045696;28;20064;-67
2022/10/11 10:54:20;;;;;;;5.70;1.70;;;;;;;12.76;59.58;102670.88;5053606;28;20514;-70
2022/10/11 10:56:52;;;;;;;4.90;1.90;;;;;;;12.77;59.86;102669.84;5050242;28;20049;-71
2022/10/11 10:59:40;;;;;;;10.30;2.85;;;;;;;12.81;59.49;102673.00;5061918;28;20101;-71
2022/10/11 11:02:17;;;;;;;6.45;2.47;;;;;;;12.82;59.19;102667.41;5046399;28;20057;-71
2022/10/11 11:05:15;;;;;;;7.15;1.80;;;;;;;12.85;59.31;102655.38;5046505;28;20044;-70
2022/10/11 11:07:49;;;;;;;9.45;2.28;;;;;;;12.89;59.42;102662.91;5059923;28;20063;-70
2022/10/11 11:10:21;;;;;;;10.68;2.03;;;;;;;12.93;59.33;102660.66;4724545;28;9999959;-70
2022/10/11 11:13:01;;;;;;;4.63;1.33;;;;;;;12.89;59.44;102649.41;5090238;28;20104;-71
2022/10/11 11:15:37;;;;;;;9.93;2.47;;;;;;;13.00;59.91;102657.00;5080287;28;20044;-71
2022/10/11 11:18:20;;;;;;;6.80;1.75;;;;;;;13.03;59.38;102650.38;5082250;28;20049;-70
2022/10/11 11:21:04;;;;;;;8.38;1.63;;;;;;;13.06;59.64;102658.09;5088719;28;20089;-70
2022/10/11 11:23:40;;;;;;;9.93;2.22;;;;;;;13.09;59.46;102649.59;5066966;28;20057;-71
2022/10/11 11:26:18;;;;;;;11.93;1.90;;;;;;;13.09;59.06;102646.91;5077017;28;20706;-70
2022/10/11 11:29:09;;;;;;;9.38;2.45;;;;;;;13.12;58.03;102642.97;5072101;28;20051;-68
2022/10/11 11:31:57;;;;;;;8.68;2.20;;;;;;;13.14;57.82;102641.75;5073106;28;20049;-68
2022/10/11 11:34:30;;;;;;;11.13;1.90;;;;;;;13.17;58.15;102641.41;5071771;28;20590;-70
2022/10/11 11:37:01;;;;;;;9.77;2.47;;;;;;;13.20;58.10;102635.59;5082455;28;20052;-71
2022/10/11 11:39:34;;;;;;;12.50;2.38;;;;;;;13.25;57.50;102637.72;5077423;28;20052;-71
2022/10/11 11:42:07;;;;;;;6.85;1.75;;;;;;;13.26;57.01;102636.69;5077282;28;20147;-70
2022/10/11 11:44:40;;;;;;;8.93;1.85;;;;;;;13.22;57.46;102622.75;5081078;28;20063;-69